createdAt,value
2017-10-11T00:01:00.472Z,79.10
2017-10-11T00:03:30.065Z,79.10
2017-10-11T00:05:58.831Z,78.90
2017-10-11T00:08:27.522Z,79.00
2017-10-11T00:10:56.428Z,78.80
2017-10-11T00:13:25.057Z,78.90
2017-10-11T00:15:53.691Z,79.00
2017-10-11T00:18:22.486Z,79.00
2017-10-11T00:20:51.143Z,78.70
2017-10-11T00:23:19.752Z,78.50
2017-10-11T00:25:51.727Z,78.30
2017-10-11T00:28:20.419Z,78.50
2017-10-11T00:30:48.988Z,78.70
2017-10-11T00:33:17.627Z,78.70
2017-10-11T00:35:47.066Z,79.60
2017-10-11T00:38:15.720Z,79.60
2017-10-11T00:40:45.186Z,80.10
2017-10-11T00:43:13.818Z,80.00
2017-10-11T00:45:42.651Z,80.20
2017-10-11T00:48:11.510Z,80.20
2017-10-11T00:50:40.157Z,80.50
2017-10-11T00:53:09.599Z,80.70
2017-10-11T00:55:38.346Z,80.60
2017-10-11T00:58:07.149Z,81.00
2017-10-11T01:00:36.634Z,81.20
2017-10-11T01:03:06.536Z,81.20
2017-10-11T01:05:36.150Z,81.20
2017-10-11T01:08:04.833Z,81.10
2017-10-11T01:10:33.942Z,81.00
2017-10-11T01:13:03.332Z,81.50
2017-10-11T01:15:33.118Z,81.40
2017-10-11T01:18:03.008Z,81.50
2017-10-11T01:20:32.032Z,81.70
2017-10-11T01:23:01.730Z,82.60
2017-10-11T01:25:30.514Z,82.50
2017-10-11T01:28:00.168Z,82.70
2017-10-11T01:30:29.879Z,83.70
2017-10-11T01:32:58.736Z,83.10
2017-10-11T01:35:27.471Z,83.20
2017-10-11T01:37:56.348Z,83.40
2017-10-11T01:40:25.239Z,83.30
2017-10-11T01:42:54.054Z,83.50
2017-10-11T01:45:22.882Z,83.50
2017-10-11T01:47:51.662Z,83.60
2017-10-11T01:50:21.576Z,83.40
2017-10-11T01:52:50.558Z,83.40
2017-10-11T01:55:19.324Z,83.50
2017-10-11T01:57:48.024Z,83.40
2017-10-11T02:00:17.512Z,83.40
2017-10-11T02:02:46.198Z,83.40
2017-10-11T02:05:18.049Z,83.50
2017-10-11T02:07:46.927Z,83.60
2017-10-11T02:10:15.582Z,83.70
2017-10-11T02:12:44.308Z,83.90
2017-10-11T02:15:15.147Z,83.80
2017-10-11T02:17:44.659Z,84.10
2017-10-11T02:20:13.266Z,84.00
2017-10-11T02:22:41.948Z,83.90
2017-10-11T02:25:10.576Z,83.90
2017-10-11T02:27:40.073Z,83.60
2017-10-11T02:30:08.800Z,83.60
2017-10-11T02:32:37.416Z,83.50
2017-10-11T02:35:06.808Z,83.70
2017-10-11T02:37:35.446Z,83.60
2017-10-11T02:40:04.195Z,83.80
2017-10-11T02:42:32.926Z,83.80
2017-10-11T02:45:02.796Z,83.60
2017-10-11T02:47:31.526Z,83.50
2017-10-11T02:50:00.192Z,83.30
2017-10-11T02:52:29.002Z,83.40
2017-10-11T02:54:57.607Z,83.40
2017-10-11T02:57:26.299Z,83.50
2017-10-11T02:59:54.946Z,83.20
2017-10-11T03:02:23.653Z,83.30
2017-10-11T03:04:52.287Z,83.30
2017-10-11T03:07:20.981Z,83.30
2017-10-11T03:09:50.438Z,83.10
2017-10-11T03:12:19.017Z,83.10
2017-10-11T03:14:47.677Z,83.10
2017-10-11T03:17:16.306Z,83.00
2017-10-11T03:19:44.887Z,83.00
2017-10-11T03:22:14.295Z,83.20
2017-10-11T03:24:43.938Z,83.10
2017-10-11T03:27:12.721Z,83.00
2017-10-11T03:29:43.157Z,83.10
2017-10-11T03:32:11.769Z,83.00
2017-10-11T03:34:42.150Z,83.50
2017-10-11T03:37:11.630Z,83.40
2017-10-11T03:39:40.285Z,83.40
2017-10-11T03:42:08.895Z,83.50
2017-10-11T03:44:38.351Z,83.40
2017-10-11T03:47:07.812Z,83.40
2017-10-11T03:49:36.755Z,83.40
2017-10-11T03:52:05.766Z,83.20
2017-10-11T03:54:34.730Z,83.00
2017-10-11T03:57:05.251Z,82.80
2017-10-11T03:59:33.893Z,82.80
2017-10-11T04:02:02.521Z,82.80
2017-10-11T04:04:31.982Z,83.20
2017-10-11T04:07:00.662Z,82.40
2017-10-11T04:09:29.401Z,82.60
2017-10-11T04:11:58.992Z,82.30
2017-10-11T04:14:28.374Z,82.50
2017-10-11T04:16:56.978Z,82.40
2017-10-11T04:19:25.707Z,82.70
2017-10-11T04:21:54.329Z,82.60
2017-10-11T04:24:23.053Z,82.60
2017-10-11T04:26:52.620Z,82.70
2017-10-11T04:32:24.583Z,82.70
2017-10-11T04:34:53.276Z,82.70
2017-10-11T04:37:21.906Z,82.70
2017-10-11T04:39:51.707Z,82.80
2017-10-11T04:42:20.406Z,82.80
2017-10-11T04:44:49.352Z,82.70
2017-10-11T04:47:18.044Z,82.50
2017-10-11T04:49:46.730Z,82.50
2017-10-11T04:52:15.486Z,82.60
2017-10-11T04:54:44.169Z,82.90
2017-10-11T04:57:12.882Z,83.10
2017-10-11T04:59:41.586Z,83.30
2017-10-11T05:02:10.617Z,83.30
2017-10-11T05:04:40.065Z,83.20
2017-10-11T05:07:09.073Z,83.00
2017-10-11T05:09:37.772Z,83.10
2017-10-11T05:12:06.380Z,83.10
2017-10-11T05:17:10.350Z,82.90
2017-10-11T05:19:39.173Z,82.80
2017-10-11T05:22:08.557Z,83.00
2017-10-11T05:24:38.380Z,83.00
2017-10-11T05:27:07.044Z,83.10
2017-10-11T05:29:35.694Z,83.00
2017-10-11T05:32:04.433Z,82.80
2017-10-11T05:34:33.259Z,82.70
2017-10-11T05:37:02.031Z,82.70
2017-10-11T05:39:30.746Z,82.40
2017-10-11T05:41:59.426Z,82.20
2017-10-11T05:44:28.077Z,82.00
2017-10-11T05:46:57.524Z,82.40
2017-10-11T05:49:26.348Z,82.30
2017-10-11T05:51:55.175Z,82.10
2017-10-11T05:54:23.922Z,82.10
2017-10-11T05:56:53.971Z,82.20
2017-10-11T05:59:22.719Z,82.10
2017-10-11T06:01:51.366Z,81.80
2017-10-11T06:04:20.112Z,82.10
2017-10-11T06:06:48.891Z,82.20
2017-10-11T06:09:17.519Z,82.20
2017-10-11T06:11:46.168Z,82.20
2017-10-11T06:14:15.791Z,82.20
2017-10-11T06:16:44.916Z,82.50
2017-10-11T06:19:13.974Z,82.00
2017-10-11T06:21:43.816Z,81.80
2017-10-11T06:24:13.631Z,81.30
2017-10-11T06:26:42.963Z,81.20
2017-10-11T06:29:11.776Z,81.20
2017-10-11T06:31:41.352Z,81.00
2017-10-11T06:34:10.102Z,81.00
2017-10-11T06:36:38.941Z,81.10
2017-10-11T06:39:07.857Z,80.90
2017-10-11T06:41:36.848Z,80.60
2017-10-11T06:44:06.830Z,80.20
2017-10-11T06:46:35.527Z,79.90
2017-10-11T06:49:04.515Z,80.00
2017-10-11T06:51:33.266Z,79.90
2017-10-11T06:54:02.026Z,79.60
2017-10-11T06:56:31.598Z,79.50
2017-10-11T06:59:00.421Z,79.20
2017-10-11T07:01:29.354Z,78.80
2017-10-11T07:03:58.033Z,78.90
2017-10-11T07:06:27.183Z,78.60
2017-10-11T07:08:56.899Z,78.60
2017-10-11T07:11:25.700Z,77.90
2017-10-11T07:13:54.361Z,76.80
2017-10-11T07:16:23.046Z,75.70
2017-10-11T07:18:51.719Z,74.40
2017-10-11T07:21:20.479Z,74.00
2017-10-11T07:23:49.202Z,73.00
2017-10-11T07:26:18.407Z,71.40
2017-10-11T07:28:47.457Z,70.10
2017-10-11T07:31:16.326Z,68.90
2017-10-11T07:33:45.052Z,67.90
2017-10-11T07:36:14.462Z,71.40
2017-10-11T07:38:43.261Z,71.30
2017-10-11T07:41:12.011Z,72.60
2017-10-11T07:43:40.944Z,73.30
2017-10-11T07:46:09.646Z,74.80
2017-10-11T07:48:38.345Z,74.50
2017-10-11T07:51:07.011Z,75.00
2017-10-11T07:53:35.969Z,75.60
2017-10-11T07:56:04.763Z,75.60
2017-10-11T07:58:33.600Z,75.70
2017-10-11T08:01:03.108Z,75.30
2017-10-11T08:03:32.404Z,75.50
2017-10-11T08:06:02.245Z,74.90
2017-10-11T08:08:31.206Z,74.90
2017-10-11T08:10:59.887Z,74.60
2017-10-11T08:13:29.364Z,74.80
2017-10-11T08:15:58.270Z,74.60
2017-10-11T08:18:27.643Z,74.90
2017-10-11T08:20:56.390Z,75.50
2017-10-11T08:23:25.974Z,76.90
2017-10-11T08:25:56.887Z,76.90
2017-10-11T08:28:25.667Z,77.00
2017-10-11T08:30:54.331Z,76.90
2017-10-11T08:33:24.367Z,76.50
2017-10-11T08:35:53.659Z,76.70
2017-10-11T08:38:22.739Z,76.60
2017-10-11T08:40:51.563Z,76.60
2017-10-11T08:43:20.449Z,76.30
2017-10-11T08:45:50.157Z,76.10
2017-10-11T08:48:19.031Z,76.10
2017-10-11T08:50:47.909Z,76.30
2017-10-11T08:53:17.522Z,76.20
2017-10-11T08:55:46.336Z,76.10
2017-10-11T08:58:15.614Z,75.50
2017-10-11T09:00:44.598Z,75.40
2017-10-11T09:03:14.167Z,75.40
2017-10-11T09:05:43.968Z,75.20
2017-10-11T09:08:12.642Z,75.20
2017-10-11T09:10:42.068Z,75.00
2017-10-11T09:13:10.982Z,75.00
2017-10-11T09:15:39.749Z,75.10
2017-10-11T09:18:08.500Z,74.60
2017-10-11T09:20:38.482Z,74.60
2017-10-11T09:23:08.336Z,74.50
2017-10-11T09:25:39.986Z,74.00
2017-10-11T09:28:08.768Z,73.70
2017-10-11T09:30:38.360Z,74.00
2017-10-11T09:33:08.690Z,73.40
2017-10-11T09:35:37.329Z,73.70
2017-10-11T09:38:07.264Z,73.10
2017-10-11T09:40:36.067Z,73.20
2017-10-11T09:43:05.775Z,72.90
2017-10-11T09:45:35.791Z,74.30
2017-10-11T09:48:04.602Z,73.70
2017-10-11T09:50:33.720Z,74.20
2017-10-11T09:53:04.489Z,74.10
2017-10-11T09:55:33.302Z,74.10
2017-10-11T09:58:03.175Z,74.20
2017-10-11T10:00:32.430Z,73.80
2017-10-11T10:03:01.110Z,73.60
2017-10-11T10:05:30.677Z,72.30
2017-10-11T10:07:59.967Z,72.30
2017-10-11T10:10:28.812Z,72.90
2017-10-11T10:12:57.907Z,71.60
2017-10-11T10:15:27.147Z,72.00
2017-10-11T10:17:56.282Z,73.10
2017-10-11T10:20:25.415Z,73.70
2017-10-11T10:22:54.487Z,73.40
2017-10-11T10:25:23.853Z,74.20
2017-10-11T10:27:52.741Z,73.80
2017-10-11T10:30:21.512Z,73.50
2017-10-11T10:32:50.547Z,72.60
2017-10-11T10:35:19.370Z,72.60
2017-10-11T10:37:49.007Z,71.80
2017-10-11T10:40:17.728Z,71.80
2017-10-11T10:42:46.492Z,71.50
2017-10-11T10:45:16.522Z,71.10
2017-10-11T10:47:45.306Z,71.10
2017-10-11T10:50:14.254Z,70.60
2017-10-11T10:52:42.952Z,69.90
2017-10-11T10:55:11.784Z,69.00
2017-10-11T10:57:40.602Z,68.10
2017-10-11T11:00:09.411Z,67.10
2017-10-11T11:02:38.359Z,67.60
2017-10-11T11:05:07.302Z,67.60
2017-10-11T11:07:36.996Z,67.30
2017-10-11T11:10:06.277Z,67.30
2017-10-11T11:12:35.212Z,67.30
2017-10-11T11:15:04.594Z,67.00
2017-10-11T11:17:34.369Z,66.30
2017-10-11T11:20:04.373Z,65.50
2017-10-11T11:22:33.099Z,64.30
2017-10-11T11:25:01.939Z,64.40
2017-10-11T11:27:31.688Z,63.80
2017-10-11T11:30:01.100Z,63.70
2017-10-11T11:32:32.198Z,64.60
2017-10-11T11:35:01.415Z,65.10
2017-10-11T11:37:32.291Z,65.10
2017-10-11T11:40:02.143Z,66.30
2017-10-11T11:42:31.460Z,66.10
2017-10-11T11:45:01.457Z,65.90
2017-10-11T11:47:31.476Z,67.10
2017-10-11T11:50:01.130Z,67.10
2017-10-11T11:52:31.235Z,67.20
2017-10-11T11:55:01.855Z,66.80
2017-10-11T11:57:38.244Z,67.90
2017-10-11T12:00:08.226Z,67.70
2017-10-11T12:02:39.392Z,67.80
2017-10-11T12:05:12.336Z,67.70
2017-10-11T12:07:41.760Z,67.50
2017-10-11T12:10:11.476Z,68.00
2017-10-11T12:12:40.364Z,67.90
2017-10-11T12:15:10.204Z,67.60
2017-10-11T12:17:39.154Z,67.60
2017-10-11T12:20:10.664Z,67.70
2017-10-11T12:22:39.424Z,67.40
2017-10-11T12:25:08.958Z,67.50
2017-10-11T12:27:39.491Z,66.80
2017-10-11T12:30:09.481Z,67.80
2017-10-11T12:32:38.321Z,67.90
2017-10-11T12:35:15.456Z,67.80
2017-10-11T12:37:53.178Z,68.00
2017-10-11T12:40:22.400Z,68.40
2017-10-11T12:42:51.116Z,68.60
2017-10-11T12:45:20.130Z,69.10
2017-10-11T12:47:49.125Z,68.60
2017-10-11T12:50:17.876Z,66.70
2017-10-11T12:52:46.518Z,63.30
2017-10-11T12:55:16.029Z,60.60
2017-10-11T12:57:44.927Z,59.50
2017-10-11T13:00:13.848Z,58.30
2017-10-11T13:02:46.244Z,55.70
2017-10-11T13:05:15.558Z,55.80
2017-10-11T13:07:44.376Z,55.70
2017-10-11T13:10:13.391Z,53.90
2017-10-11T13:12:42.968Z,51.70
2017-10-11T13:15:12.018Z,51.70
2017-10-11T13:17:41.675Z,51.80
2017-10-11T13:20:10.736Z,53.10
2017-10-11T13:22:40.267Z,55.30
2017-10-11T13:25:09.320Z,55.30
2017-10-11T13:27:38.854Z,56.60
2017-10-11T13:30:07.556Z,54.30
2017-10-11T13:32:36.600Z,53.10
2017-10-11T13:35:06.642Z,51.50
2017-10-11T13:37:35.569Z,51.50
2017-10-11T13:40:04.309Z,50.20
2017-10-11T13:42:33.715Z,53.80
2017-10-11T13:45:02.492Z,53.70
2017-10-11T13:47:31.371Z,53.10
2017-10-11T13:50:00.407Z,54.70
2017-10-11T13:52:29.166Z,56.70
2017-10-11T13:54:57.926Z,56.30
2017-10-11T13:57:27.612Z,56.10
2017-10-11T13:59:56.303Z,55.60
2017-10-11T14:02:24.933Z,56.50
2017-10-11T14:04:54.648Z,55.00
2017-10-11T14:07:23.212Z,55.50
2017-10-11T14:09:51.949Z,57.20
2017-10-11T14:12:20.599Z,59.00
2017-10-11T14:14:49.456Z,59.70
2017-10-11T14:17:18.284Z,59.60
2017-10-11T14:19:47.326Z,60.80
2017-10-11T14:22:16.061Z,61.90
2017-10-11T14:24:44.702Z,62.10
2017-10-11T14:27:13.353Z,63.10
2017-10-11T14:29:41.930Z,64.50
2017-10-11T14:32:12.246Z,64.60
2017-10-11T14:34:43.027Z,65.60
2017-10-11T14:37:14.803Z,64.80
2017-10-11T14:39:43.502Z,64.70
2017-10-11T14:42:12.146Z,65.20
2017-10-11T14:44:40.992Z,64.90
2017-10-11T14:47:10.896Z,65.10
2017-10-11T14:49:39.958Z,64.80
2017-10-11T14:52:09.079Z,66.60
2017-10-11T14:54:37.863Z,67.10
2017-10-11T14:57:06.543Z,67.30
2017-10-11T14:59:35.754Z,68.20
2017-10-11T15:02:04.649Z,68.50
2017-10-11T15:04:33.447Z,69.00
2017-10-11T15:07:02.947Z,69.10
2017-10-11T15:09:31.642Z,69.40
2017-10-11T15:12:00.488Z,69.90
2017-10-11T15:14:29.405Z,69.00
2017-10-11T15:16:58.139Z,69.30
2017-10-11T15:19:27.577Z,70.30
2017-10-11T15:21:57.032Z,70.90
2017-10-11T15:24:25.674Z,70.80
2017-10-11T15:26:55.295Z,71.80
2017-10-11T15:29:24.034Z,71.20
2017-10-11T15:31:52.720Z,71.00
2017-10-11T15:34:23.113Z,71.30
2017-10-11T15:36:52.891Z,71.10
2017-10-11T15:39:21.552Z,71.10
2017-10-11T15:41:50.992Z,72.10
2017-10-11T15:44:19.654Z,72.10
2017-10-11T15:46:48.426Z,72.20
2017-10-11T15:49:17.132Z,72.00
2017-10-11T15:51:45.821Z,72.40
2017-10-11T15:54:14.514Z,72.70
2017-10-11T15:56:44.159Z,72.80
2017-10-11T15:59:12.999Z,72.50
2017-10-11T16:01:42.600Z,73.40
2017-10-11T16:04:11.366Z,73.40
2017-10-11T16:06:40.375Z,73.90
2017-10-11T16:09:10.269Z,74.90
2017-10-11T16:11:39.379Z,74.80
2017-10-11T16:14:08.290Z,75.10
2017-10-11T16:16:36.899Z,75.10
2017-10-11T16:19:05.576Z,75.80
2017-10-11T16:21:35.445Z,76.50
2017-10-11T16:24:05.155Z,76.50
2017-10-11T16:26:35.022Z,77.00
2017-10-11T16:29:04.726Z,77.00
2017-10-11T16:31:34.152Z,77.20
2017-10-11T16:34:03.184Z,77.60
2017-10-11T16:36:32.131Z,78.00
2017-10-11T16:39:00.742Z,78.10
2017-10-11T16:41:29.667Z,78.00
2017-10-11T16:43:58.428Z,77.70
2017-10-11T16:46:27.957Z,78.60
2017-10-11T16:48:56.776Z,78.30
2017-10-11T16:51:25.610Z,78.30
2017-10-11T16:53:54.810Z,78.50
2017-10-11T16:56:23.826Z,78.80
2017-10-11T16:58:53.609Z,79.50
2017-10-11T17:01:23.333Z,79.60
2017-10-11T17:03:51.927Z,79.70
2017-10-11T17:06:20.634Z,79.70
2017-10-11T17:08:49.379Z,79.50
2017-10-11T17:11:18.075Z,79.70
2017-10-11T17:13:46.801Z,79.80
2017-10-11T17:16:18.340Z,79.90
2017-10-11T17:18:47.195Z,80.20
2017-10-11T17:21:15.910Z,80.50
2017-10-11T17:23:44.797Z,80.30
2017-10-11T17:26:13.437Z,80.80
2017-10-11T17:28:43.092Z,80.90
2017-10-11T17:31:12.004Z,80.70
2017-10-11T17:33:40.717Z,80.50
2017-10-11T17:36:09.316Z,80.50
2017-10-11T17:38:38.747Z,80.80
2017-10-11T17:41:07.626Z,80.80
2017-10-11T17:43:37.266Z,81.00
2017-10-11T17:46:06.240Z,81.00
2017-10-11T17:48:35.071Z,81.10
2017-10-11T17:51:04.671Z,81.30
2017-10-11T17:53:33.375Z,81.40
2017-10-11T17:56:03.558Z,82.00
2017-10-11T17:58:32.235Z,82.00
2017-10-11T18:01:02.003Z,82.20
2017-10-11T18:03:31.675Z,82.40
2017-10-11T18:06:01.521Z,82.10
2017-10-11T18:08:30.411Z,81.90
2017-10-11T18:11:00.448Z,82.00
2017-10-11T18:13:29.137Z,82.00
2017-10-11T18:15:57.755Z,82.00
2017-10-11T18:18:26.705Z,82.20
2017-10-11T18:20:55.780Z,82.40
2017-10-11T18:23:24.541Z,82.80
2017-10-11T18:25:53.315Z,82.70
2017-10-11T18:28:21.977Z,82.70
2017-10-11T18:30:50.753Z,82.70
2017-10-11T18:33:19.467Z,82.70
2017-10-11T18:35:48.106Z,82.40
2017-10-11T18:38:16.867Z,82.30
2017-10-11T18:40:47.271Z,82.50
2017-10-11T18:43:16.108Z,82.20
2017-10-11T18:45:44.945Z,82.40
2017-10-11T18:48:14.199Z,82.50
2017-10-11T18:50:44.003Z,82.30
2017-10-11T18:53:12.701Z,82.60
2017-10-11T18:55:41.545Z,82.40
2017-10-11T18:58:10.405Z,82.50
2017-10-11T19:00:39.697Z,82.20
2017-10-11T19:03:08.797Z,82.40
2017-10-11T19:05:37.588Z,82.30
2017-10-11T19:08:06.426Z,82.00
2017-10-11T19:10:35.706Z,82.20
2017-10-11T19:13:05.410Z,81.90
2017-10-11T19:15:35.110Z,82.00
2017-10-11T19:18:03.852Z,81.80
2017-10-11T19:20:32.699Z,81.50
2017-10-11T19:23:01.754Z,81.40
2017-10-11T19:25:30.551Z,81.50
2017-10-11T19:27:59.414Z,81.40
2017-10-11T19:30:37.247Z,81.40
2017-10-11T19:33:08.214Z,81.80
2017-10-11T19:35:46.116Z,81.80
2017-10-11T19:38:14.848Z,81.90
2017-10-11T19:40:43.657Z,82.00
2017-10-11T19:43:14.723Z,82.10
2017-10-11T19:45:43.468Z,82.00
2017-10-11T19:48:15.030Z,82.00
2017-10-11T19:50:45.156Z,81.70
2017-10-11T19:53:13.920Z,81.20
2017-10-11T19:55:42.972Z,81.10
2017-10-11T19:58:12.337Z,81.20
2017-10-11T20:00:55.829Z,81.30
2017-10-11T20:03:24.884Z,81.40
2017-10-11T20:05:53.556Z,81.80
2017-10-11T20:08:22.267Z,81.90
2017-10-11T20:10:51.920Z,82.10
2017-10-11T20:13:21.105Z,82.10
2017-10-11T20:15:49.795Z,82.20
2017-10-11T20:18:18.739Z,82.20
2017-10-11T20:20:48.072Z,82.00
2017-10-11T20:23:16.754Z,82.00
2017-10-11T20:25:45.571Z,82.00
2017-10-11T20:28:15.353Z,81.80
2017-10-11T20:30:45.234Z,81.80
2017-10-11T20:33:14.481Z,81.80
2017-10-11T20:35:43.539Z,82.10
2017-10-11T20:38:12.316Z,82.10
2017-10-11T20:40:41.557Z,82.30
2017-10-11T20:43:10.229Z,82.30
2017-10-11T20:45:38.901Z,82.30
2017-10-11T20:48:08.088Z,82.30
2017-10-11T20:50:36.914Z,82.40
2017-10-11T20:53:06.513Z,82.50
2017-10-11T20:55:35.244Z,82.40
2017-10-11T20:58:04.118Z,82.40
2017-10-11T21:00:32.816Z,82.30
2017-10-11T21:03:01.554Z,82.50
2017-10-11T21:05:30.228Z,82.50
2017-10-11T21:08:00.325Z,82.40
2017-10-11T21:10:29.331Z,82.40
2017-10-11T21:12:58.326Z,82.40
2017-10-11T21:15:27.066Z,81.60
2017-10-11T21:17:55.741Z,81.20
2017-10-11T21:20:24.432Z,80.90
2017-10-11T21:22:54.414Z,81.50
2017-10-11T21:25:23.100Z,81.40
2017-10-11T21:27:51.777Z,81.60
2017-10-11T21:30:20.512Z,81.80
2017-10-11T21:32:49.219Z,81.80
2017-10-11T21:35:18.246Z,81.80
2017-10-11T21:37:47.422Z,81.80
2017-10-11T21:40:18.469Z,81.50
2017-10-11T21:42:47.416Z,81.50
2017-10-11T21:45:16.850Z,81.40
2017-10-11T21:47:45.974Z,81.00
2017-10-11T21:50:15.584Z,81.20
2017-10-11T21:52:45.232Z,81.40
2017-10-11T21:55:16.035Z,81.30
2017-10-11T21:57:44.667Z,81.30
2017-10-11T22:00:14.426Z,81.50
2017-10-11T22:02:43.054Z,81.40
2017-10-11T22:05:11.783Z,81.50
2017-10-11T22:07:40.454Z,81.40
2017-10-11T22:10:09.138Z,81.30
2017-10-11T22:12:38.780Z,81.90
2017-10-11T22:15:07.477Z,81.50
2017-10-11T22:17:36.108Z,81.30
2017-10-11T22:20:04.963Z,81.30
2017-10-11T22:22:33.681Z,81.30
2017-10-11T22:25:02.318Z,81.50
2017-10-11T22:27:30.956Z,81.40
2017-10-11T22:29:59.798Z,81.60
2017-10-11T22:32:28.483Z,81.80
2017-10-11T22:34:57.049Z,82.00
2017-10-11T22:37:25.594Z,82.00
2017-10-11T22:39:54.158Z,82.10
2017-10-11T22:42:22.830Z,82.30
2017-10-11T22:44:52.309Z,82.30
2017-10-11T22:47:21.413Z,82.30
2017-10-11T22:49:50.155Z,82.20
2017-10-11T22:52:18.753Z,82.40
2017-10-11T22:54:48.116Z,82.60
2017-10-11T22:57:16.773Z,82.60
2017-10-11T22:59:45.556Z,82.80
2017-10-11T23:02:14.287Z,82.80
2017-10-11T23:04:42.997Z,82.50
2017-10-11T23:07:11.615Z,83.10
2017-10-11T23:09:40.663Z,83.10
2017-10-11T23:12:09.299Z,82.40
2017-10-11T23:14:37.959Z,82.50
2017-10-11T23:17:06.573Z,82.60
2017-10-11T23:19:36.005Z,82.50
2017-10-11T23:22:04.611Z,82.50
2017-10-11T23:24:34.366Z,82.50
2017-10-11T23:27:03.022Z,82.40
2017-10-11T23:29:32.923Z,82.40
2017-10-11T23:32:01.560Z,82.40
2017-10-11T23:34:31.717Z,82.20
2017-10-11T23:37:00.365Z,82.10
2017-10-11T23:39:29.987Z,82.30
2017-10-11T23:41:58.689Z,82.40
2017-10-11T23:44:27.311Z,82.40
2017-10-11T23:46:55.974Z,82.40
2017-10-11T23:49:24.723Z,82.40
2017-10-11T23:51:54.313Z,82.30
2017-10-11T23:54:23.237Z,82.30
2017-10-11T23:56:51.818Z,82.40
2017-10-11T23:59:20.902Z,82.30
